createdAt,value
2023-03-05T00:00:29.217Z,88111.00
2023-03-05T00:01:29.150Z,88111.00
2023-03-05T00:02:29.147Z,88113.00
2023-03-05T00:03:29.105Z,88111.00
2023-03-05T00:04:29.048Z,88113.00
2023-03-05T00:05:29.012Z,88113.00
2023-03-05T00:06:29.014Z,88115.00
2023-03-05T00:07:28.967Z,88113.00
2023-03-05T00:08:28.842Z,88115.00
2023-03-05T00:09:28.813Z,88115.00
2023-03-05T00:10:28.749Z,88115.00
2023-03-05T00:11:28.712Z,88115.00
2023-03-05T00:12:28.660Z,88117.00
2023-03-05T00:13:28.648Z,88117.00
2023-03-05T00:14:28.615Z,88115.00
2023-03-05T00:15:28.562Z,88115.00
2023-03-05T00:16:28.541Z,88117.00
2023-03-05T00:17:28.473Z,88117.00
2023-03-05T00:18:28.458Z,88115.00
2023-03-05T00:19:28.454Z,88115.00
2023-03-05T00:20:28.381Z,88115.00
2023-03-05T00:21:28.360Z,88115.00
2023-03-05T00:22:28.312Z,88115.00
2023-03-05T00:23:28.311Z,88115.00
2023-03-05T00:24:28.257Z,88115.00
2023-03-05T00:25:28.215Z,88115.00
2023-03-05T00:26:28.178Z,88115.00
2023-03-05T00:27:28.142Z,88117.00
2023-03-05T00:28:28.103Z,88117.00
2023-03-05T00:29:30.114Z,88117.00
2023-03-05T00:30:28.007Z,88113.00
2023-03-05T00:31:28.071Z,88113.00
2023-03-05T00:32:28.054Z,88117.00
2023-03-05T00:33:27.899Z,88115.00
2023-03-05T00:34:27.876Z,88117.00
2023-03-05T00:35:27.815Z,88115.00
2023-03-05T00:36:27.751Z,88119.00
2023-03-05T00:37:27.711Z,88123.00
2023-03-05T00:38:27.677Z,88121.00
2023-03-05T00:39:27.657Z,88117.00
2023-03-05T00:40:27.634Z,88119.00
2023-03-05T00:41:27.551Z,88115.00
2023-03-05T00:42:27.516Z,88117.00
2023-03-05T00:43:27.463Z,88115.00
2023-03-05T00:44:27.431Z,88117.00
2023-03-05T00:45:27.393Z,88115.00
2023-03-05T00:46:27.545Z,88117.00
2023-03-05T00:47:27.301Z,88117.00
2023-03-05T00:48:27.259Z,88117.00
2023-03-05T00:49:27.223Z,88115.00
2023-03-05T00:50:27.169Z,88119.00
2023-03-05T00:51:27.142Z,88119.00
2023-03-05T00:52:27.077Z,88117.00
2023-03-05T00:53:27.033Z,88117.00
2023-03-05T00:54:27.000Z,88113.00
2023-03-05T00:55:26.932Z,88113.00
2023-03-05T00:56:26.908Z,88113.00
2023-03-05T00:57:26.843Z,88113.00
2023-03-05T00:58:26.804Z,88109.00
2023-03-05T00:59:26.741Z,88111.00
2023-03-05T01:00:26.696Z,88111.00
2023-03-05T01:01:26.741Z,88113.00
2023-03-05T01:02:26.591Z,88109.00
2023-03-05T01:03:26.548Z,88107.00
2023-03-05T01:04:26.504Z,88107.00
2023-03-05T01:05:26.526Z,88107.00
2023-03-05T01:06:26.388Z,88107.00
2023-03-05T01:07:26.371Z,88101.00
2023-03-05T01:08:26.290Z,88105.00
2023-03-05T01:09:26.257Z,88101.00
2023-03-05T01:10:26.225Z,88103.00
2023-03-05T01:11:26.168Z,88105.00
2023-03-05T01:12:26.122Z,88101.00
2023-03-05T01:13:26.066Z,88099.00
2023-03-05T01:14:26.025Z,88097.00
2023-03-05T01:15:25.977Z,88097.00
2023-03-05T01:16:26.041Z,88095.00
2023-03-05T01:17:25.886Z,88093.00
2023-03-05T01:18:25.839Z,88097.00
2023-03-05T01:19:25.790Z,88097.00
2023-03-05T01:20:25.728Z,88095.00
2023-03-05T01:21:25.695Z,88093.00
2023-03-05T01:22:25.636Z,88091.00
2023-03-05T01:23:25.602Z,88093.00
2023-03-05T01:24:25.560Z,88091.00
2023-03-05T01:25:25.507Z,88091.00
2023-03-05T01:26:25.461Z,88089.00
2023-03-05T01:27:25.463Z,88087.00
2023-03-05T01:28:25.376Z,88085.00
2023-03-05T01:29:25.329Z,88083.00
2023-03-05T01:30:25.281Z,88083.00
2023-03-05T01:31:25.275Z,88083.00
2023-03-05T01:32:25.195Z,88081.00
2023-03-05T01:33:25.151Z,88079.00
2023-03-05T01:34:25.103Z,88075.00
2023-03-05T01:35:25.072Z,88077.00
2023-03-05T01:36:25.023Z,88074.00
2023-03-05T01:37:24.968Z,88070.00
2023-03-05T01:38:24.926Z,88072.00
2023-03-05T01:39:24.869Z,88066.00
2023-03-05T01:40:24.843Z,88066.00
2023-03-05T01:41:24.815Z,88062.00
2023-03-05T01:42:24.760Z,88060.00
2023-03-05T01:43:24.747Z,88064.00
2023-03-05T01:44:24.666Z,88060.00
2023-03-05T01:45:24.626Z,88060.00
2023-03-05T01:46:24.550Z,88058.00
2023-03-05T01:47:24.504Z,88058.00
2023-03-05T01:48:24.473Z,88056.00
2023-03-05T01:49:24.409Z,88058.00
2023-03-05T01:50:24.375Z,88056.00
2023-03-05T01:51:24.345Z,88056.00
2023-03-05T01:52:24.308Z,88054.00
2023-03-05T01:53:24.275Z,88054.00
2023-03-05T01:54:24.210Z,88052.00
2023-03-05T01:55:24.179Z,88054.00
2023-03-05T01:56:24.126Z,88052.00
2023-03-05T01:57:24.088Z,88052.00
2023-03-05T01:58:24.046Z,88052.00
2023-03-05T01:59:24.012Z,88052.00
2023-03-05T02:00:23.971Z,88050.00
2023-03-05T02:01:23.940Z,88054.00
2023-03-05T02:02:23.888Z,88054.00
2023-03-05T02:03:23.906Z,88058.00
2023-03-05T02:04:23.788Z,88054.00
2023-03-05T02:05:23.715Z,88056.00
2023-03-05T02:06:23.679Z,88060.00
2023-03-05T02:07:23.623Z,88054.00
2023-03-05T02:08:23.579Z,88058.00
2023-03-05T02:09:23.546Z,88054.00
2023-03-05T02:10:23.484Z,88056.00
2023-03-05T02:11:23.457Z,88052.00
2023-03-05T02:12:23.414Z,88052.00
2023-03-05T02:13:23.385Z,88054.00
2023-03-05T02:14:23.344Z,88052.00
2023-03-05T02:15:23.361Z,88052.00
2023-03-05T02:16:23.296Z,88048.00
2023-03-05T02:17:23.200Z,88048.00
2023-03-05T02:18:23.148Z,88050.00
2023-03-05T02:19:23.096Z,88050.00
2023-03-05T02:20:23.144Z,88048.00
2023-03-05T02:21:23.042Z,88050.00
2023-03-05T02:22:23.243Z,88050.00
2023-03-05T02:23:22.942Z,88052.00
2023-03-05T02:24:22.876Z,88050.00
2023-03-05T02:25:22.835Z,88052.00
2023-03-05T02:26:22.786Z,88050.00
2023-03-05T02:27:22.752Z,88052.00
2023-03-05T02:28:22.707Z,88052.00
2023-03-05T02:29:22.670Z,88048.00
2023-03-05T02:30:22.645Z,88048.00
2023-03-05T02:31:22.626Z,88046.00
2023-03-05T02:32:22.608Z,88046.00
2023-03-05T02:33:22.531Z,88040.00
2023-03-05T02:34:22.468Z,88042.00
2023-03-05T02:35:22.503Z,88042.00
2023-03-05T02:36:22.377Z,88042.00
2023-03-05T02:37:22.347Z,88040.00
2023-03-05T02:38:22.295Z,88038.00
2023-03-05T02:39:22.256Z,88038.00
2023-03-05T02:40:22.211Z,88038.00
2023-03-05T02:41:22.176Z,88036.00
2023-03-05T02:42:22.131Z,88034.00
2023-03-05T02:43:22.086Z,88034.00
2023-03-05T02:44:22.038Z,88036.00
2023-03-05T02:45:22.008Z,88036.00
2023-03-05T02:46:21.941Z,88032.00
2023-03-05T02:47:21.920Z,88032.00
2023-03-05T02:48:21.853Z,88030.00
2023-03-05T02:49:21.837Z,88028.00
2023-03-05T02:50:21.773Z,88026.00
2023-03-05T02:51:21.717Z,88024.00
2023-03-05T02:52:21.681Z,88024.00
2023-03-05T02:53:21.651Z,88020.00
2023-03-05T02:54:21.595Z,88020.00
2023-03-05T02:55:21.565Z,88017.00
2023-03-05T02:56:21.506Z,88017.00
2023-03-05T02:57:21.542Z,88015.00
2023-03-05T02:58:21.428Z,88020.00
2023-03-05T02:59:21.392Z,88015.00
2023-03-05T03:00:21.357Z,88017.00
2023-03-05T03:01:21.363Z,88017.00
2023-03-05T03:02:21.270Z,88015.00
2023-03-05T03:03:21.291Z,88013.00
2023-03-05T03:04:21.190Z,88013.00
2023-03-05T03:05:21.126Z,88015.00
2023-03-05T03:06:21.105Z,88011.00
2023-03-05T03:07:21.032Z,88011.00
2023-03-05T03:08:21.008Z,88009.00
2023-03-05T03:09:20.961Z,88007.00
2023-03-05T03:10:20.917Z,88007.00
2023-03-05T03:11:20.889Z,88005.00
2023-03-05T03:12:20.842Z,88007.00
2023-03-05T03:13:20.824Z,88005.00
2023-03-05T03:14:20.739Z,88003.00
2023-03-05T03:15:20.708Z,88005.00
2023-03-05T03:16:20.711Z,88003.00
2023-03-05T03:17:20.605Z,88003.00
2023-03-05T03:18:20.570Z,88003.00
2023-03-05T03:19:20.516Z,88003.00
2023-03-05T03:20:20.513Z,88005.00
2023-03-05T03:21:20.424Z,88001.00
2023-03-05T03:22:20.402Z,88003.00
2023-03-05T03:23:20.354Z,88003.00
2023-03-05T03:24:20.311Z,88003.00
2023-03-05T03:25:20.290Z,88003.00
2023-03-05T03:26:20.250Z,88005.00
2023-03-05T03:27:20.183Z,88005.00
2023-03-05T03:28:20.150Z,88007.00
2023-03-05T03:29:20.102Z,88005.00
2023-03-05T03:30:20.059Z,88003.00
2023-03-05T03:31:20.075Z,88001.00
2023-03-05T03:32:19.972Z,88003.00
2023-03-05T03:33:19.978Z,88003.00
2023-03-05T03:34:19.865Z,88001.00
2023-03-05T03:35:19.895Z,88001.00
2023-03-05T03:36:19.783Z,87999.00
2023-03-05T03:37:19.747Z,88001.00
2023-03-05T03:38:19.713Z,87999.00
2023-03-05T03:39:19.676Z,88001.00
2023-03-05T03:40:19.603Z,87999.00
2023-03-05T03:41:19.560Z,87999.00
2023-03-05T03:42:19.518Z,88001.00
2023-03-05T03:43:19.469Z,87993.00
2023-03-05T03:44:19.421Z,87999.00
2023-03-05T03:45:19.394Z,87997.00
2023-03-05T03:46:19.370Z,87997.00
2023-03-05T03:47:19.292Z,87997.00
2023-03-05T03:48:19.239Z,87997.00
2023-03-05T03:49:19.201Z,87995.00
2023-03-05T03:50:19.164Z,87993.00
2023-03-05T03:51:19.088Z,87993.00
2023-03-05T03:52:19.052Z,87993.00
2023-03-05T03:53:19.019Z,87993.00
2023-03-05T03:54:18.996Z,87993.00
2023-03-05T03:55:18.930Z,87993.00
2023-03-05T03:56:18.866Z,87993.00
2023-03-05T03:57:18.832Z,87991.00
2023-03-05T03:58:18.800Z,87995.00
2023-03-05T03:59:18.730Z,87993.00
2023-03-05T04:00:18.695Z,87993.00
2023-03-05T04:01:18.653Z,87993.00
2023-03-05T04:02:18.670Z,87995.00
2023-03-05T04:03:18.594Z,87993.00
2023-03-05T04:04:18.544Z,87993.00
2023-03-05T04:05:18.471Z,87993.00
2023-03-05T04:06:18.414Z,87995.00
2023-03-05T04:07:18.374Z,87993.00
2023-03-05T04:08:18.333Z,87993.00
2023-03-05T04:09:18.287Z,87995.00
2023-03-05T04:10:18.212Z,87993.00
2023-03-05T04:11:18.170Z,87991.00
2023-03-05T04:12:18.256Z,87993.00
2023-03-05T04:13:18.074Z,87989.00
2023-03-05T04:14:18.049Z,87989.00
2023-03-05T04:15:18.058Z,87989.00
2023-03-05T04:16:18.033Z,87987.00
2023-03-05T04:17:17.880Z,87989.00
2023-03-05T04:18:17.842Z,87989.00
2023-03-05T04:19:17.790Z,87987.00
2023-03-05T04:20:17.808Z,87985.00
2023-03-05T04:21:17.700Z,87983.00
2023-03-05T04:22:17.652Z,87983.00
2023-03-05T04:23:17.606Z,87985.00
2023-03-05T04:24:17.562Z,87983.00
2023-03-05T04:25:17.519Z,87983.00
2023-03-05T04:26:17.469Z,87981.00
2023-03-05T04:27:17.406Z,87983.00
2023-03-05T04:28:17.360Z,87981.00
2023-03-05T04:29:17.336Z,87981.00
2023-03-05T04:30:17.255Z,87979.00
2023-03-05T04:31:17.276Z,87979.00
2023-03-05T04:32:17.173Z,87977.00
2023-03-05T04:33:17.118Z,87979.00
2023-03-05T04:34:17.080Z,87975.00
2023-03-05T04:35:17.140Z,87977.00
2023-03-05T04:36:16.993Z,87977.00
2023-03-05T04:37:16.977Z,87975.00
2023-03-05T04:38:16.941Z,87975.00
2023-03-05T04:39:16.850Z,87973.00
2023-03-05T04:40:16.808Z,87973.00
2023-03-05T04:41:16.788Z,87973.00
2023-03-05T04:42:16.718Z,87977.00
2023-03-05T04:43:16.683Z,87971.00
2023-03-05T04:44:16.659Z,87973.00
2023-03-05T04:45:16.608Z,87971.00
2023-03-05T04:46:16.639Z,87971.00
2023-03-05T04:47:16.559Z,87971.00
2023-03-05T04:48:16.445Z,87969.00
2023-03-05T04:49:17.361Z,87971.00
2023-03-05T04:50:16.355Z,87967.00
2023-03-05T04:51:16.342Z,87965.00
2023-03-05T04:52:16.289Z,87967.00
2023-03-05T04:53:16.238Z,87967.00
2023-03-05T04:54:16.192Z,87965.00
2023-03-05T04:55:16.155Z,87965.00
2023-03-05T04:56:16.094Z,87965.00
2023-03-05T04:57:16.056Z,87959.00
2023-03-05T04:58:16.027Z,87957.00
2023-03-05T04:59:15.959Z,87955.00
2023-03-05T05:00:15.923Z,87955.00
2023-03-05T05:01:15.886Z,87957.00
2023-03-05T05:02:15.848Z,87955.00
2023-03-05T05:03:15.827Z,87955.00
2023-03-05T05:04:15.766Z,87953.00
2023-03-05T05:05:15.775Z,87951.00
2023-03-05T05:06:15.666Z,87951.00
2023-03-05T05:07:15.626Z,87953.00
2023-03-05T05:08:15.593Z,87951.00
2023-03-05T05:09:15.532Z,87953.00
2023-03-05T05:10:15.538Z,87951.00
2023-03-05T05:11:15.452Z,87951.00
2023-03-05T05:12:15.396Z,87951.00
2023-03-05T05:13:15.370Z,87951.00
2023-03-05T07:25:09.827Z,87941.00
2023-03-05T07:31:09.637Z,87935.00
2023-03-05T07:32:09.645Z,87935.00
2023-03-05T07:33:09.528Z,87935.00
2023-03-05T07:34:09.487Z,87935.00
2023-03-05T07:35:09.426Z,87935.00
2023-03-05T07:36:09.401Z,87935.00
2023-03-05T07:37:09.366Z,87939.00
2023-03-05T07:38:09.306Z,87937.00
2023-03-05T07:39:09.259Z,87935.00
2023-03-05T07:40:09.250Z,87933.00
2023-03-05T07:41:09.169Z,87935.00
2023-03-05T07:42:09.251Z,87929.00
2023-03-05T07:43:09.100Z,87935.00
2023-03-05T07:44:09.047Z,87935.00
2023-03-05T07:45:09.011Z,87933.00
2023-03-05T07:46:09.038Z,87931.00
2023-03-05T07:47:08.910Z,87927.00
2023-03-05T07:48:08.902Z,87927.00
2023-03-05T07:49:08.830Z,87923.00
2023-03-05T07:50:08.813Z,87925.00
2023-03-05T07:51:08.745Z,87921.00
2023-03-05T07:52:08.700Z,87919.00
2023-03-05T07:53:08.684Z,87915.00
2023-03-05T07:54:08.608Z,87915.00
2023-03-05T07:55:08.562Z,87913.00
2023-03-05T07:56:08.543Z,87913.00
2023-03-05T07:57:08.468Z,87911.00
2023-03-05T07:58:08.429Z,87909.00
2023-03-05T07:59:08.383Z,87911.00
2023-03-05T08:00:08.338Z,87911.00
2023-03-05T08:01:08.291Z,87907.00
2023-03-05T08:02:08.297Z,87905.00
2023-03-05T08:03:08.207Z,87905.00
2023-03-05T08:04:08.463Z,87904.00
2023-03-05T08:05:08.152Z,87904.00
2023-03-05T08:06:08.070Z,87902.00
2023-03-05T08:07:08.023Z,87902.00
2023-03-05T08:08:08.014Z,87902.00
2023-03-05T08:09:07.950Z,87900.00
2023-03-05T08:10:07.918Z,87900.00
2023-03-05T08:11:07.852Z,87902.00
2023-03-05T08:12:07.810Z,87900.00
2023-03-05T08:13:07.782Z,87900.00
2023-03-05T08:14:07.715Z,87900.00
2023-03-05T08:15:07.676Z,87898.00
2023-03-05T08:16:07.742Z,87898.00
2023-03-05T08:17:07.579Z,87894.00
2023-03-05T08:18:07.540Z,87892.00
2023-03-05T08:19:07.482Z,87890.00
2023-03-05T08:20:07.415Z,87886.00
2023-03-05T08:21:07.376Z,87886.00
2023-03-05T08:22:07.328Z,87888.00
2023-03-05T08:23:07.298Z,87884.00
2023-03-05T08:24:07.297Z,87882.00
2023-03-05T08:25:07.186Z,87880.00
2023-03-05T08:26:07.140Z,87876.00
2023-03-05T08:27:07.118Z,87872.00
2023-03-05T08:28:07.057Z,87872.00
2023-03-05T08:29:07.007Z,87868.00
2023-03-05T08:30:06.934Z,87866.00
2023-03-05T08:31:06.893Z,87866.00
2023-03-05T08:32:06.852Z,87864.00
2023-03-05T08:33:06.813Z,87864.00
2023-03-05T08:34:06.757Z,87866.00
2023-03-05T08:35:06.725Z,87862.00
2023-03-05T08:36:06.676Z,87864.00
2023-03-05T08:37:06.644Z,87860.00
2023-03-05T08:38:06.591Z,87864.00
2023-03-05T08:39:06.544Z,87862.00
2023-03-05T08:40:06.505Z,87860.00
2023-03-05T08:41:06.444Z,87858.00
2023-03-05T08:42:08.885Z,87856.00
2023-03-05T08:43:06.562Z,87852.00
2023-03-05T08:44:06.478Z,87856.00
2023-03-05T08:45:06.434Z,87852.00
2023-03-05T08:46:06.421Z,87849.00
2023-03-05T08:47:06.331Z,87850.00
2023-03-05T08:48:06.304Z,87850.00
2023-03-05T08:49:06.255Z,87849.00
2023-03-05T08:50:06.275Z,87847.00
2023-03-05T08:51:06.311Z,87845.00
2023-03-05T08:52:06.330Z,87843.00
2023-03-05T08:53:06.353Z,87845.00
2023-03-05T08:54:06.373Z,87845.00
2023-03-05T08:55:06.368Z,87843.00
2023-03-05T08:56:06.382Z,87841.00
2023-03-05T08:57:06.399Z,87841.00
2023-03-05T08:58:06.425Z,87837.00
2023-03-05T08:59:06.444Z,87839.00
2023-03-05T09:00:06.447Z,87841.00
2023-03-05T09:01:06.476Z,87843.00
2023-03-05T09:23:06.792Z,87817.00
2023-03-05T09:24:06.817Z,87815.00
2023-03-05T09:25:06.825Z,87817.00
2023-03-05T09:26:06.828Z,87813.00
2023-03-05T09:27:06.838Z,87811.00
2023-03-05T09:28:06.878Z,87811.00
2023-03-05T09:29:06.905Z,87809.00
2023-03-05T09:30:06.902Z,87809.00
2023-03-05T09:31:06.953Z,87807.00
2023-03-05T09:32:07.007Z,87803.00
2023-03-05T09:33:06.944Z,87807.00
2023-03-05T09:34:06.992Z,87803.00
2023-03-05T09:35:06.967Z,87803.00
2023-03-05T09:36:06.975Z,87802.00
2023-03-05T09:37:06.996Z,87800.00
2023-03-05T09:38:06.995Z,87798.00
2023-03-05T09:39:07.097Z,87798.00
2023-03-05T09:40:07.014Z,87796.00
2023-03-05T09:41:07.026Z,87794.00
2023-03-05T09:42:09.209Z,87792.00
2023-03-05T09:43:06.996Z,87788.00
2023-03-05T09:44:06.966Z,87790.00
2023-03-05T09:45:06.896Z,87784.00
2023-03-05T09:46:06.903Z,87786.00
2023-03-05T09:47:06.803Z,87782.00
2023-03-05T09:48:06.745Z,87782.00
2023-03-05T09:49:06.722Z,87780.00
2023-03-05T09:50:06.633Z,87780.00
2023-03-05T09:51:06.607Z,87778.00
2023-03-05T09:52:06.537Z,87778.00
2023-03-05T09:53:06.491Z,87776.00
2023-03-05T09:54:06.415Z,87774.00
2023-03-05T09:55:06.496Z,87770.00
2023-03-05T09:56:06.323Z,87770.00
2023-03-05T09:57:06.282Z,87768.00
2023-03-05T09:58:06.209Z,87762.00
2023-03-05T09:59:06.185Z,87762.00
2023-03-05T10:00:06.157Z,87758.00
2023-03-05T10:01:06.097Z,87758.00
2023-03-05T10:02:06.011Z,87756.00
2023-03-05T10:03:05.982Z,87754.00
2023-03-05T10:04:05.936Z,87752.00
2023-03-05T10:05:05.850Z,87748.00
2023-03-05T10:06:05.784Z,87748.00
2023-03-05T10:07:07.298Z,87748.00
2023-03-05T10:08:05.671Z,87747.00
2023-03-05T10:09:05.659Z,87745.00
2023-03-05T10:10:05.575Z,87745.00
2023-03-05T10:11:05.537Z,87741.00
2023-03-05T10:12:05.461Z,87743.00
2023-03-05T10:13:05.409Z,87743.00
2023-03-05T10:14:05.402Z,87737.00
2023-03-05T12:31:56.423Z,87524.00
2023-03-05T12:32:56.354Z,87518.00
2023-03-05T12:33:56.253Z,87520.00
2023-03-05T12:34:56.173Z,87520.00
2023-03-05T12:35:56.185Z,87518.00
2023-03-05T12:36:56.048Z,87514.00
2023-03-05T12:37:55.957Z,87512.00
2023-03-05T12:38:55.891Z,87510.00
2023-03-05T12:39:55.836Z,87506.00
2023-03-05T12:40:55.736Z,87500.00
2023-03-05T12:41:55.668Z,87498.00
2023-03-05T12:42:55.598Z,87494.00
2023-03-05T12:43:55.500Z,87490.00
2023-03-05T12:44:55.445Z,87494.00
2023-03-05T12:45:55.371Z,87492.00
2023-03-05T14:24:47.986Z,87377.00
2023-03-05T14:25:47.942Z,87383.00
2023-03-05T14:26:47.857Z,87383.00
2023-03-05T14:27:47.775Z,87379.00
2023-03-05T14:28:47.709Z,87383.00
2023-03-05T14:29:47.607Z,87383.00
2023-03-05T14:30:47.658Z,87381.00
2023-03-05T14:31:47.458Z,87387.00
2023-03-05T14:32:47.381Z,87389.00
2023-03-05T14:33:47.348Z,87387.00
2023-03-05T14:34:47.252Z,87385.00
2023-03-05T14:35:47.173Z,87387.00
2023-03-05T14:36:47.079Z,87385.00
2023-03-05T14:37:47.006Z,87383.00
2023-03-05T14:38:46.931Z,87389.00
2023-03-05T14:39:46.930Z,87383.00
2023-03-05T14:40:46.785Z,87383.00
2023-03-05T14:41:46.767Z,87377.00
2023-03-05T14:42:46.637Z,87379.00
2023-03-05T14:43:46.553Z,87381.00
2023-03-05T14:44:46.481Z,87377.00
2023-03-05T14:45:46.505Z,87375.00
2023-03-05T14:46:46.370Z,87369.00
2023-03-05T14:47:46.280Z,87375.00
2023-03-05T14:48:46.183Z,87373.00
2023-03-05T14:49:46.157Z,87371.00
2023-03-05T14:50:46.033Z,87375.00
2023-03-05T14:51:46.008Z,87371.00
2023-03-05T14:52:45.878Z,87375.00
2023-03-05T14:53:47.424Z,87373.00
2023-03-05T14:54:45.733Z,87369.00
2023-03-05T14:55:45.661Z,87373.00
2023-03-05T14:56:45.571Z,87371.00
2023-03-05T14:57:45.547Z,87361.00
2023-03-05T14:58:45.452Z,87365.00
2023-03-05T14:59:45.384Z,87363.00
2023-03-05T15:40:42.557Z,87344.00
2023-03-05T15:41:42.472Z,87346.00
2023-03-05T15:42:42.381Z,87342.00
2023-03-05T15:43:42.353Z,87344.00
2023-03-05T15:44:42.249Z,87340.00
2023-03-05T15:45:42.246Z,87342.00
2023-03-05T15:46:42.192Z,87342.00
2023-03-05T15:47:42.075Z,87340.00
2023-03-05T15:48:43.994Z,87340.00
2023-03-05T15:49:41.971Z,87340.00
2023-03-05T15:50:43.161Z,87340.00
2023-03-05T15:51:41.860Z,87342.00
2023-03-05T15:52:41.852Z,87342.00
2023-03-05T15:53:41.716Z,87338.00
2023-03-05T15:54:41.648Z,87340.00
2023-03-05T15:55:41.613Z,87338.00
2023-03-05T15:56:41.518Z,87336.00
2023-03-05T15:57:41.479Z,87336.00
2023-03-05T15:58:41.412Z,87334.00
2023-03-05T15:59:41.340Z,87336.00
2023-03-05T16:00:41.302Z,87334.00
2023-03-05T16:01:41.328Z,87336.00
2023-03-05T16:02:41.283Z,87336.00
2023-03-05T16:03:41.406Z,87334.00
2023-03-05T16:04:41.305Z,87336.00
2023-03-05T16:05:41.297Z,87336.00
2023-03-05T16:06:41.286Z,87334.00
2023-03-05T16:07:41.284Z,87334.00
2023-03-05T16:08:41.297Z,87334.00
2023-03-05T16:09:41.331Z,87332.00
2023-03-05T16:45:41.222Z,87356.00
2023-03-05T16:46:41.240Z,87356.00
2023-03-05T16:47:41.175Z,87356.00
2023-03-05T16:48:41.127Z,87356.00
2023-03-05T16:49:41.081Z,87356.00
2023-03-05T16:50:41.025Z,87360.00
2023-03-05T16:51:40.981Z,87358.00
2023-03-05T16:52:40.929Z,87361.00
2023-03-05T16:53:40.908Z,87358.00
2023-03-05T16:54:40.865Z,87356.00
2023-03-05T16:55:40.875Z,87360.00
2023-03-05T16:57:40.729Z,87360.00
2023-03-05T16:58:40.716Z,87363.00
2023-03-05T16:59:40.625Z,87365.00
2023-03-05T17:00:40.634Z,87363.00
2023-03-05T17:01:40.573Z,87363.00
2023-03-05T17:02:40.491Z,87361.00
2023-03-05T17:03:40.522Z,87363.00
2023-03-05T17:04:40.406Z,87361.00
2023-03-05T17:05:40.360Z,87365.00
2023-03-05T17:06:40.324Z,87369.00
2023-03-05T17:07:40.292Z,87367.00
2023-03-05T17:09:40.190Z,87371.00
2023-03-05T17:14:40.027Z,87377.00
2023-03-05T17:20:39.739Z,87387.00
2023-03-05T18:00:38.087Z,87426.00
2023-03-05T18:01:38.080Z,87426.00
2023-03-05T18:02:38.017Z,87426.00
2023-03-05T18:03:37.981Z,87426.00
2023-03-05T18:05:37.882Z,87422.00
2023-03-05T18:06:37.849Z,87422.00
2023-03-05T18:08:37.729Z,87426.00
2023-03-05T18:09:37.676Z,87424.00
2023-03-05T18:10:37.620Z,87422.00
2023-03-05T18:11:37.570Z,87426.00
2023-03-05T18:12:37.528Z,87424.00
2023-03-05T18:13:37.460Z,87426.00
2023-03-05T18:14:37.427Z,87426.00
2023-03-05T18:15:37.368Z,87426.00
2023-03-05T18:16:37.366Z,87426.00
2023-03-05T18:18:37.193Z,87428.00
2023-03-05T18:19:37.123Z,87426.00
2023-03-05T18:20:37.094Z,87428.00
2023-03-05T18:21:37.029Z,87428.00
2023-03-05T18:22:36.990Z,87430.00
2023-03-05T18:23:36.932Z,87430.00
2023-03-05T18:24:36.883Z,87428.00
2023-03-05T18:25:36.881Z,87428.00
2023-03-05T18:26:36.838Z,87428.00
2023-03-05T18:27:36.721Z,87430.00
2023-03-05T18:28:36.660Z,87432.00
2023-03-05T18:29:36.594Z,87428.00
2023-03-05T18:30:36.575Z,87430.00
2023-03-05T18:31:36.493Z,87432.00
2023-03-05T18:32:36.470Z,87432.00
2023-03-05T18:33:36.388Z,87432.00
2023-03-05T18:34:36.348Z,87430.00
2023-03-05T18:35:36.302Z,87434.00
2023-03-05T18:36:36.226Z,87434.00
2023-03-05T18:37:36.174Z,87438.00
2023-03-05T18:38:36.135Z,87436.00
2023-03-05T18:39:36.088Z,87432.00
2023-03-05T18:40:36.032Z,87436.00
2023-03-05T18:41:35.961Z,87434.00
2023-03-05T18:42:35.929Z,87432.00
2023-03-05T18:43:35.876Z,87434.00
2023-03-05T18:44:35.829Z,87434.00
2023-03-05T18:45:35.772Z,87434.00
2023-03-05T18:46:35.730Z,87436.00
2023-03-05T18:47:35.663Z,87434.00
2023-03-05T18:48:35.650Z,87436.00
2023-03-05T18:49:35.565Z,87438.00
2023-03-05T18:50:35.530Z,87440.00
2023-03-05T18:51:35.479Z,87434.00
2023-03-05T18:52:35.466Z,87436.00
2023-03-05T18:53:35.400Z,87438.00
2023-03-05T20:29:30.724Z,87430.00
2023-03-05T20:30:30.718Z,87430.00
2023-03-05T20:31:30.716Z,87432.00
2023-03-05T20:32:30.609Z,87430.00
2023-03-05T20:33:30.533Z,87428.00
2023-03-05T20:34:30.503Z,87428.00
2023-03-05T20:35:30.449Z,87428.00
2023-03-05T20:36:30.413Z,87426.00
2023-03-05T20:37:30.337Z,87428.00
2023-03-05T20:38:30.291Z,87426.00
2023-03-05T20:39:30.240Z,87422.00
2023-03-05T20:40:30.186Z,87420.00
2023-03-05T20:41:30.162Z,87418.00
2023-03-05T20:42:30.093Z,87416.00
2023-03-05T20:43:30.046Z,87416.00
2023-03-05T20:44:30.007Z,87418.00
2023-03-05T20:45:29.956Z,87418.00
2023-03-05T20:46:29.927Z,87416.00
2023-03-05T20:47:29.852Z,87416.00
2023-03-05T20:48:29.801Z,87415.00
2023-03-05T20:49:29.749Z,87413.00
2023-03-05T20:50:29.733Z,87415.00
2023-03-05T20:51:29.695Z,87416.00
2023-03-05T20:52:29.603Z,87415.00
2023-03-05T20:53:29.567Z,87413.00
2023-03-05T20:54:29.529Z,87413.00
2023-03-05T20:55:29.472Z,87409.00
2023-03-05T20:56:29.406Z,87409.00
2023-03-05T20:57:29.353Z,87409.00
2023-03-05T20:58:29.303Z,87411.00
2023-03-05T20:59:29.270Z,87409.00
2023-03-05T21:00:29.238Z,87411.00
2023-03-05T21:01:29.156Z,87409.00
2023-03-05T21:02:29.114Z,87409.00
2023-03-05T21:03:29.072Z,87409.00
2023-03-05T21:04:29.010Z,87407.00
2023-03-05T21:05:28.968Z,87401.00
2023-03-05T21:06:28.913Z,87401.00
2023-03-05T21:07:28.873Z,87399.00
2023-03-05T21:08:28.828Z,87399.00
2023-03-05T21:09:28.795Z,87399.00
2023-03-05T21:10:28.749Z,87397.00
2023-03-05T21:11:28.702Z,87397.00
2023-03-05T21:12:28.633Z,87395.00
2023-03-05T21:13:28.608Z,87393.00
2023-03-05T21:14:28.561Z,87393.00
2023-03-05T21:15:28.490Z,87393.00
2023-03-05T21:16:28.520Z,87393.00
2023-03-05T21:17:28.400Z,87393.00
2023-03-05T21:18:28.347Z,87393.00
2023-03-05T21:19:28.321Z,87389.00
2023-03-05T21:20:28.299Z,87389.00
2023-03-05T21:21:28.204Z,87385.00
2023-03-05T21:22:28.178Z,87383.00
2023-03-05T21:23:28.138Z,87383.00
2023-03-05T21:24:28.080Z,87383.00
2023-03-05T21:25:28.031Z,87383.00
2023-03-05T21:26:28.000Z,87381.00
2023-03-05T21:27:27.994Z,87383.00
2023-03-05T21:28:27.907Z,87381.00
2023-03-05T21:29:27.872Z,87381.00
2023-03-05T21:30:27.808Z,87379.00
2023-03-05T21:31:27.835Z,87381.00
2023-03-05T21:32:27.749Z,87377.00
2023-03-05T21:33:27.697Z,87377.00
2023-03-05T21:34:27.674Z,87375.00
2023-03-05T21:35:27.657Z,87373.00
2023-03-05T21:36:27.609Z,87375.00
2023-03-05T21:37:27.515Z,87371.00
2023-03-05T21:38:27.445Z,87373.00
2023-03-05T21:39:27.414Z,87369.00
2023-03-05T21:40:27.365Z,87371.00
2023-03-05T21:41:27.316Z,87369.00
2023-03-05T21:42:27.290Z,87365.00
2023-03-05T21:43:27.223Z,87367.00
2023-03-05T21:44:27.311Z,87369.00
2023-03-05T21:45:27.164Z,87365.00
2023-03-05T21:46:27.091Z,87365.00
2023-03-05T21:47:27.043Z,87363.00
2023-03-05T21:48:27.016Z,87360.00
2023-03-05T21:49:26.947Z,87358.00
2023-03-05T21:50:26.919Z,87356.00
2023-03-05T21:51:26.927Z,87358.00
2023-03-05T21:52:26.880Z,87356.00
2023-03-05T21:53:26.861Z,87358.00
2023-03-05T21:54:28.694Z,87354.00
2023-03-05T21:55:26.657Z,87352.00
2023-03-05T21:56:26.610Z,87354.00
2023-03-05T21:57:26.589Z,87354.00
2023-03-05T21:58:26.530Z,87354.00